createdAt,value
2024-03-12T00:01:11.289Z,99318.22
2024-03-12T00:03:44.983Z,99317.41
2024-03-12T00:06:12.765Z,99306.22
2024-03-12T00:08:44.098Z,99321.91
2024-03-12T00:11:11.497Z,99313.19
2024-03-12T00:13:38.603Z,99308.88
2024-03-12T00:16:07.053Z,99320.28
2024-03-12T00:18:34.877Z,99287.28
2024-03-12T00:21:02.600Z,99315.31
2024-03-12T00:23:30.303Z,99324.97
2024-03-12T00:25:57.629Z,99319.84
2024-03-12T00:28:25.053Z,99326.16
2024-03-12T00:30:55.545Z,99327.97
2024-03-12T00:33:23.201Z,99238.87
2024-03-12T00:35:50.664Z,99290.22
2024-03-12T00:38:19.449Z,99324.19
2024-03-12T00:40:49.568Z,99327.81
2024-03-12T00:43:17.276Z,99316.41
2024-03-12T00:45:46.476Z,99332.19
2024-03-12T00:48:15.079Z,99331.31
2024-03-12T00:50:47.643Z,99331.41
2024-03-12T00:53:15.492Z,99326.12
2024-03-12T00:55:43.023Z,99328.66
2024-03-12T00:58:12.523Z,99328.72
2024-03-12T01:00:41.870Z,99331.28
2024-03-12T01:03:10.369Z,99335.72
2024-03-12T01:05:39.648Z,99339.22
2024-03-12T01:08:09.359Z,99343.69
2024-03-12T01:10:37.353Z,99347.28
2024-03-12T01:13:11.229Z,99347.28
2024-03-12T01:15:41.372Z,99343.00
2024-03-12T01:18:11.825Z,99339.50
2024-03-12T01:20:39.166Z,99337.72
2024-03-12T01:23:07.616Z,99322.19
2024-03-12T01:25:38.676Z,99330.00
2024-03-12T01:28:07.957Z,99337.78
2024-03-12T01:30:37.867Z,99317.13
2024-03-12T01:33:07.522Z,99342.25
2024-03-12T01:35:40.639Z,99339.56
2024-03-12T01:38:11.923Z,99328.97
2024-03-12T01:40:40.595Z,99335.22
2024-03-12T01:43:08.875Z,99337.84
2024-03-12T01:45:37.583Z,99347.63
2024-03-12T01:48:09.651Z,99339.72
2024-03-12T01:50:40.428Z,99343.34
2024-03-12T01:53:09.239Z,99343.34
2024-03-12T01:55:45.841Z,99345.16
2024-03-12T01:58:18.137Z,99329.59
2024-03-12T02:00:47.085Z,99346.91
2024-03-12T02:03:15.571Z,99329.75
2024-03-12T02:05:43.556Z,99357.44
2024-03-12T02:08:12.479Z,99332.22
2024-03-12T02:10:39.696Z,99354.78
2024-03-12T02:13:07.131Z,99360.22
2024-03-12T02:15:37.610Z,99366.38
2024-03-12T02:18:05.475Z,99363.78
2024-03-12T02:20:32.904Z,99357.59
2024-03-12T02:23:00.524Z,99369.22
2024-03-12T02:25:28.280Z,99360.59
2024-03-12T02:27:57.360Z,99372.72
2024-03-12T02:30:24.825Z,99379.09
2024-03-12T02:32:53.748Z,99375.59
2024-03-12T02:35:21.420Z,99379.34
2024-03-12T02:37:48.923Z,99387.22
2024-03-12T02:40:17.275Z,99367.56
2024-03-12T02:42:45.948Z,99380.69
2024-03-12T02:45:16.831Z,99362.72
2024-03-12T02:47:46.929Z,99387.06
2024-03-12T02:50:17.002Z,99386.31
2024-03-12T02:52:45.782Z,99375.94
2024-03-12T02:55:13.088Z,99381.19
2024-03-12T02:57:40.903Z,99303.38
2024-03-12T03:00:13.687Z,99366.94
2024-03-12T03:02:43.333Z,99388.81
2024-03-12T03:05:11.783Z,99397.47
2024-03-12T03:07:43.689Z,99397.47
2024-03-12T03:10:12.733Z,99392.47
2024-03-12T03:12:41.817Z,99357.78
2024-03-12T03:15:14.348Z,99364.75
2024-03-12T03:17:47.431Z,99390.78
2024-03-12T03:20:18.082Z,99400.53
2024-03-12T03:22:46.605Z,99398.19
2024-03-12T03:25:14.997Z,99406.25
2024-03-12T03:27:43.604Z,99415.31
2024-03-12T03:30:14.430Z,99408.44
2024-03-12T03:32:42.097Z,99418.03
2024-03-12T03:35:09.756Z,99417.03
2024-03-12T03:37:37.112Z,99423.91
2024-03-12T03:40:11.875Z,99430.13
2024-03-12T03:42:39.646Z,99420.41
2024-03-12T03:45:07.192Z,99347.72
2024-03-12T03:47:37.896Z,99413.47
2024-03-12T03:50:09.524Z,99424.97
2024-03-12T03:52:39.805Z,99417.25
2024-03-12T03:55:08.347Z,99440.75
2024-03-12T03:57:35.903Z,99434.63
2024-03-12T04:00:14.354Z,99440.94
2024-03-12T04:02:44.934Z,99436.63
2024-03-12T04:05:13.528Z,99439.25
2024-03-12T04:07:42.517Z,99433.00
2024-03-12T04:10:12.984Z,99437.47
2024-03-12T04:12:44.173Z,99429.72
2024-03-12T04:15:13.011Z,99421.84
2024-03-12T04:17:43.574Z,99432.31
2024-03-12T04:20:12.360Z,99439.38
2024-03-12T04:22:40.477Z,99425.78
2024-03-12T04:25:08.905Z,99444.13
2024-03-12T04:27:39.388Z,99448.72
2024-03-12T04:30:12.031Z,99449.63
2024-03-12T04:32:40.761Z,99382.00
2024-03-12T04:35:14.060Z,99456.88
2024-03-12T04:37:42.057Z,99456.94
2024-03-12T04:40:10.195Z,99474.56
2024-03-12T04:42:38.891Z,99478.19
2024-03-12T04:45:08.351Z,99474.69
2024-03-12T04:47:38.631Z,99473.03
2024-03-12T04:50:05.936Z,99478.22
2024-03-12T04:52:35.171Z,99481.81
2024-03-12T04:55:03.219Z,99401.13
2024-03-12T04:57:30.622Z,99476.78
2024-03-12T04:59:57.656Z,99389.19
2024-03-12T05:02:24.808Z,99403.88
2024-03-12T05:04:52.320Z,99486.56
2024-03-12T05:07:19.387Z,99469.16
2024-03-12T05:09:46.737Z,99449.41
2024-03-12T05:12:14.143Z,99488.72
2024-03-12T05:14:41.388Z,99481.09
2024-03-12T05:17:08.565Z,99483.03
2024-03-12T05:19:36.014Z,99481.41
2024-03-12T05:22:04.259Z,99453.72
2024-03-12T05:24:35.322Z,99473.66
2024-03-12T05:27:04.989Z,99465.91
2024-03-12T05:29:43.609Z,99483.56
2024-03-12T05:32:19.252Z,99504.44
2024-03-12T05:34:48.903Z,99493.09
2024-03-12T05:37:42.279Z,99502.66
2024-03-12T05:40:18.279Z,99502.62
2024-03-12T05:43:04.773Z,99503.66
2024-03-12T05:45:50.902Z,99512.41
2024-03-12T05:48:18.810Z,99512.34
2024-03-12T05:50:46.374Z,99520.19
2024-03-12T05:53:14.504Z,99513.87
2024-03-12T05:55:42.913Z,99511.25
2024-03-12T05:58:13.853Z,99485.19
2024-03-12T06:00:41.278Z,99453.78
2024-03-12T06:03:08.633Z,99531.06
2024-03-12T06:05:35.997Z,99492.63
2024-03-12T06:08:03.417Z,99536.78
2024-03-12T06:10:30.641Z,99536.66
2024-03-12T06:12:58.158Z,99546.13
2024-03-12T06:15:25.465Z,99520.81
2024-03-12T06:17:52.583Z,99545.25
2024-03-12T06:20:20.218Z,99535.66
2024-03-12T06:22:47.664Z,99519.94
2024-03-12T06:25:14.876Z,99505.94
2024-03-12T06:27:42.954Z,99544.31
2024-03-12T06:30:10.689Z,99546.13
2024-03-12T06:32:38.592Z,99538.09
2024-03-12T06:35:06.667Z,99558.47
2024-03-12T06:37:34.406Z,99511.22
2024-03-12T06:40:07.105Z,99526.53
2024-03-12T06:42:34.792Z,99561.00
2024-03-12T06:45:03.687Z,99556.28
2024-03-12T06:47:33.675Z,99560.31
2024-03-12T06:50:01.100Z,99563.59
2024-03-12T06:52:29.148Z,99563.28
2024-03-12T06:54:56.522Z,99507.44
2024-03-12T06:57:24.187Z,99568.28
2024-03-12T06:59:51.636Z,99545.25
2024-03-12T07:02:19.328Z,99569.84
2024-03-12T07:04:50.034Z,99571.03
2024-03-12T07:07:21.283Z,99572.44
2024-03-12T07:09:50.791Z,99571.97
2024-03-12T07:12:20.060Z,99583.13
2024-03-12T07:14:56.389Z,99574.00
2024-03-12T07:17:24.348Z,99544.44
2024-03-12T07:19:52.414Z,99556.97
2024-03-12T07:22:20.051Z,99555.81
2024-03-12T07:24:48.746Z,99580.06
2024-03-12T07:27:16.229Z,99578.94
2024-03-12T07:29:44.956Z,99585.31
2024-03-12T07:32:14.722Z,99584.56
2024-03-12T07:34:43.601Z,99596.41
2024-03-12T07:37:12.047Z,99589.72
2024-03-12T07:39:39.939Z,99593.00
2024-03-12T07:42:10.400Z,99595.38
2024-03-12T07:44:38.799Z,99565.22
2024-03-12T07:47:06.487Z,99593.22
2024-03-12T07:49:37.959Z,99573.06
2024-03-12T07:52:07.198Z,99596.44
2024-03-12T07:54:35.178Z,99603.88
2024-03-12T07:57:03.138Z,99592.25
2024-03-12T07:59:31.679Z,99594.88
2024-03-12T08:01:59.293Z,99592.31
2024-03-12T08:04:27.499Z,99574.53
2024-03-12T08:06:55.145Z,99601.78
2024-03-12T08:09:22.581Z,99607.03
2024-03-12T08:11:50.365Z,99583.59
2024-03-12T08:14:19.197Z,99593.09
2024-03-12T08:16:46.507Z,99621.47
2024-03-12T08:19:14.319Z,99626.78
2024-03-12T08:21:41.702Z,99616.41
2024-03-12T08:24:12.320Z,99624.72
2024-03-12T08:26:39.837Z,99605.63
2024-03-12T08:29:07.063Z,99601.53
2024-03-12T08:31:38.849Z,99598.84
2024-03-12T08:34:17.251Z,99629.06
2024-03-12T08:36:45.055Z,99633.44
2024-03-12T08:39:12.619Z,99627.19
2024-03-12T08:41:41.117Z,99633.81
2024-03-12T08:44:09.564Z,99633.66
2024-03-12T08:46:37.152Z,99633.50
2024-03-12T08:49:07.497Z,99635.16
2024-03-12T08:51:38.134Z,99610.34
2024-03-12T08:54:06.458Z,99636.22
2024-03-12T08:56:36.786Z,99630.53
2024-03-12T08:59:08.132Z,99647.06
2024-03-12T09:01:35.393Z,99642.41
2024-03-12T09:04:09.270Z,99639.81
2024-03-12T09:06:36.898Z,99615.03
2024-03-12T09:09:04.201Z,99624.22
2024-03-12T09:11:32.163Z,99650.03
2024-03-12T09:14:00.837Z,99649.28
2024-03-12T09:16:28.268Z,99655.75
2024-03-12T09:18:55.895Z,99656.19
2024-03-12T09:21:23.879Z,99647.53
2024-03-12T09:23:57.077Z,99554.91
2024-03-12T09:26:29.842Z,99659.84
2024-03-12T09:28:57.138Z,99603.84
2024-03-12T09:31:25.029Z,99608.69
2024-03-12T09:33:53.773Z,99651.69
2024-03-12T09:36:22.286Z,99655.31
2024-03-12T09:38:54.968Z,99641.63
2024-03-12T09:41:25.358Z,99667.97
2024-03-12T09:43:55.302Z,99668.03
2024-03-12T09:46:22.856Z,99651.31
2024-03-12T09:48:53.002Z,99677.69
2024-03-12T09:51:22.821Z,99664.31
2024-03-12T09:53:50.721Z,99678.66
2024-03-12T09:56:19.572Z,99683.00
2024-03-12T09:58:49.376Z,99674.63
2024-03-12T10:01:16.996Z,99681.25
2024-03-12T10:03:45.125Z,99684.50
2024-03-12T10:06:12.604Z,99655.75
2024-03-12T10:08:45.691Z,99680.06
2024-03-12T10:11:20.909Z,99679.09
2024-03-12T10:13:57.200Z,99688.72
2024-03-12T10:16:29.250Z,99694.97
2024-03-12T10:19:12.928Z,99686.84
2024-03-12T10:21:42.092Z,99685.91
2024-03-12T10:24:14.932Z,99664.13
2024-03-12T10:26:44.076Z,99688.03
2024-03-12T10:29:14.758Z,99674.06
2024-03-12T10:31:45.268Z,99694.88
2024-03-12T10:34:21.736Z,99694.13
2024-03-12T10:36:51.565Z,99691.78
2024-03-12T10:39:27.584Z,99702.81
2024-03-12T10:42:00.847Z,99654.69
2024-03-12T10:44:30.169Z,99690.09
2024-03-12T10:47:00.183Z,99694.38
2024-03-12T10:49:29.897Z,99691.47
2024-03-12T10:51:59.165Z,99703.69
2024-03-12T10:54:32.019Z,99694.19
2024-03-12T10:57:04.533Z,99636.72
2024-03-12T10:59:34.997Z,99649.50
2024-03-12T11:02:05.185Z,99700.62
2024-03-12T11:04:36.666Z,99700.56
2024-03-12T11:07:05.415Z,99701.41
2024-03-12T11:09:34.929Z,99663.22
2024-03-12T11:12:05.319Z,99702.44
2024-03-12T11:14:33.072Z,99698.31
2024-03-12T11:17:01.811Z,99705.69
2024-03-12T11:19:30.886Z,99702.25
2024-03-12T11:22:12.281Z,99694.53
2024-03-12T11:24:48.857Z,99696.41
2024-03-12T11:27:20.661Z,99703.75
2024-03-12T11:30:10.017Z,99712.41
2024-03-12T11:32:40.664Z,99707.72
2024-03-12T11:35:27.824Z,99704.75
2024-03-12T11:37:59.535Z,99704.75
2024-03-12T11:40:32.166Z,99702.06
2024-03-12T11:43:00.011Z,99700.03
2024-03-12T11:45:43.107Z,99687.72
2024-03-12T11:48:12.203Z,99704.28
2024-03-12T11:50:41.750Z,99709.06
2024-03-12T11:53:20.214Z,99711.50
2024-03-12T11:55:54.026Z,99706.19
2024-03-12T11:58:21.796Z,99699.22
2024-03-12T12:00:52.339Z,99698.59
2024-03-12T12:03:20.412Z,99700.88
2024-03-12T12:05:47.772Z,99705.59
2024-03-12T12:08:17.909Z,99702.25
2024-03-12T12:11:03.056Z,99695.06
2024-03-12T12:13:33.811Z,99705.56
2024-03-12T12:16:08.487Z,99705.50
2024-03-12T12:18:36.638Z,99709.19
2024-03-12T12:21:24.430Z,99701.53
2024-03-12T12:23:53.238Z,99693.00
2024-03-12T12:26:21.831Z,99710.50
2024-03-12T12:28:53.860Z,99708.75
2024-03-12T12:31:26.069Z,99698.84
2024-03-12T12:33:56.955Z,99712.00
2024-03-12T12:36:30.220Z,99711.22
2024-03-12T12:39:03.835Z,99717.75
2024-03-12T12:41:44.341Z,99716.44
2024-03-12T12:44:23.094Z,99713.53
2024-03-12T12:46:53.839Z,99715.88
2024-03-12T12:49:22.957Z,99723.50
2024-03-12T12:51:51.579Z,99722.12
2024-03-12T12:54:23.488Z,99713.47
2024-03-12T12:56:52.017Z,99722.56
2024-03-12T12:59:24.825Z,99720.75
2024-03-12T13:01:52.361Z,99717.09
2024-03-12T13:04:28.733Z,99708.88
2024-03-12T13:06:58.264Z,99718.19
2024-03-12T13:09:34.577Z,99715.09
2024-03-12T13:12:04.792Z,99718.63
2024-03-12T13:14:32.917Z,99714.22
2024-03-12T13:17:01.116Z,99719.63
2024-03-12T13:19:29.126Z,99718.69
2024-03-12T13:21:59.182Z,99720.25
2024-03-12T13:24:26.694Z,99715.97
2024-03-12T13:26:54.188Z,99713.25
2024-03-12T13:29:21.855Z,99715.69
2024-03-12T13:31:49.703Z,99717.69
2024-03-12T13:34:16.951Z,99713.13
2024-03-12T13:36:44.788Z,99715.59
2024-03-12T13:39:16.444Z,99713.53
2024-03-12T13:41:44.314Z,99722.81
2024-03-12T13:44:13.205Z,99715.59
2024-03-12T13:46:44.226Z,99697.38
2024-03-12T13:49:18.538Z,99716.12
2024-03-12T13:51:47.898Z,99707.81
2024-03-12T13:54:16.282Z,99716.34
2024-03-12T13:56:44.143Z,99711.75
2024-03-12T13:59:13.950Z,99713.06
2024-03-12T14:01:42.224Z,99711.16
2024-03-12T14:04:12.960Z,99717.84
2024-03-12T14:06:41.299Z,99718.19
2024-03-12T14:09:13.416Z,99717.84
2024-03-12T14:11:41.387Z,99690.34
2024-03-12T14:14:12.610Z,99707.81
2024-03-12T14:16:40.391Z,99712.88
2024-03-12T14:19:07.542Z,99714.41
2024-03-12T14:21:35.079Z,99706.47
2024-03-12T14:24:04.293Z,99711.75
2024-03-12T14:26:31.845Z,99711.25
2024-03-12T14:28:58.940Z,99704.47
2024-03-12T14:31:26.646Z,99706.31
2024-03-12T14:33:54.162Z,99709.63
2024-03-12T14:36:21.677Z,99713.91
2024-03-12T14:38:53.195Z,99709.78
2024-03-12T14:41:23.815Z,99709.88
2024-03-12T14:43:51.289Z,99714.19
2024-03-12T14:46:19.171Z,99710.41
2024-03-12T14:48:47.227Z,99714.72
2024-03-12T14:51:14.507Z,99721.00
2024-03-12T14:53:41.916Z,99716.56
2024-03-12T14:56:09.047Z,99722.03
2024-03-12T14:58:36.459Z,99709.78
2024-03-12T15:01:06.154Z,99721.28
2024-03-12T15:03:33.588Z,99717.75
2024-03-12T15:06:03.132Z,99718.87
2024-03-12T15:08:30.499Z,99724.25
2024-03-12T15:10:58.150Z,99716.19
2024-03-12T15:13:25.668Z,99715.25
2024-03-12T15:15:54.240Z,99716.12
2024-03-12T15:18:24.762Z,99723.88
2024-03-12T15:20:51.973Z,99717.00
2024-03-12T15:23:19.356Z,99720.78
2024-03-12T15:25:46.818Z,99724.25
2024-03-12T15:28:14.488Z,99729.84
2024-03-12T15:30:43.837Z,99726.41
2024-03-12T15:33:12.346Z,99724.03
2024-03-12T15:35:40.760Z,99720.75
2024-03-12T15:38:08.281Z,99719.91
2024-03-12T15:40:38.847Z,99726.25
2024-03-12T15:43:10.808Z,99726.50
2024-03-12T15:45:38.309Z,99731.03
2024-03-12T15:48:09.218Z,99725.00
2024-03-12T15:50:39.843Z,99731.94
2024-03-12T15:53:07.626Z,99729.28
2024-03-12T15:55:37.077Z,99730.94
2024-03-12T15:58:04.603Z,99731.88
2024-03-12T16:00:35.560Z,99739.78
2024-03-12T16:03:02.960Z,99736.34
2024-03-12T16:05:30.521Z,99740.00
2024-03-12T16:07:58.203Z,99742.94
2024-03-12T16:10:25.969Z,99739.63
2024-03-12T16:12:53.337Z,99743.31
2024-03-12T16:15:20.738Z,99746.19
2024-03-12T16:17:47.992Z,99747.25
2024-03-12T16:20:16.578Z,99746.53
2024-03-12T16:22:44.299Z,99752.06
2024-03-12T16:25:12.060Z,99752.22
2024-03-12T16:27:41.046Z,99755.97
2024-03-12T16:30:10.961Z,99750.78
2024-03-12T16:32:42.947Z,99756.94
2024-03-12T16:35:10.563Z,99756.84
2024-03-12T16:37:39.821Z,99758.59
2024-03-12T16:40:10.939Z,99761.41
2024-03-12T16:42:38.616Z,99763.19
2024-03-12T16:45:07.319Z,99756.28
2024-03-12T16:47:34.817Z,99755.53
2024-03-12T16:50:09.601Z,99753.75
2024-03-12T16:52:37.021Z,99759.06
2024-03-12T16:55:07.015Z,99760.06
2024-03-12T16:57:37.587Z,99761.09
2024-03-12T17:00:07.731Z,99761.09
2024-03-12T17:02:44.472Z,99766.41
2024-03-12T17:05:23.913Z,99766.41
2024-03-12T17:07:54.477Z,99769.16
2024-03-12T17:10:24.987Z,99765.66
2024-03-12T17:12:53.232Z,99771.06
2024-03-12T17:15:24.763Z,99772.09
2024-03-12T17:17:52.830Z,99774.81
2024-03-12T17:20:20.069Z,99772.25
2024-03-12T17:22:48.104Z,99767.22
2024-03-12T17:25:18.406Z,99779.47
2024-03-12T17:27:48.797Z,99771.59
2024-03-12T17:30:16.242Z,99771.59
2024-03-12T17:32:47.085Z,99776.03
2024-03-12T17:35:16.365Z,99769.88
2024-03-12T17:37:45.421Z,99772.59
2024-03-12T17:40:16.577Z,99774.47
2024-03-12T17:42:47.489Z,99781.69
2024-03-12T17:45:16.937Z,99774.78
2024-03-12T17:47:47.710Z,99789.88
2024-03-12T17:50:21.330Z,99786.44
2024-03-12T17:52:51.273Z,99777.94
2024-03-12T17:55:19.983Z,99791.12
2024-03-12T17:57:47.871Z,99792.06
2024-03-12T18:00:18.967Z,99800.97
2024-03-12T18:02:47.490Z,99800.19
2024-03-12T18:05:17.278Z,99799.44
2024-03-12T18:07:46.309Z,99797.78
2024-03-12T18:10:17.082Z,99798.88
2024-03-12T18:12:45.568Z,99799.94
2024-03-12T18:15:16.325Z,99805.34
2024-03-12T18:17:45.351Z,99805.44
2024-03-12T18:20:15.315Z,99809.94
2024-03-12T18:22:43.662Z,99810.03
2024-03-12T18:25:12.002Z,99814.47
2024-03-12T18:27:45.558Z,99808.22
2024-03-12T18:30:13.126Z,99812.47
2024-03-12T18:32:40.875Z,99823.09
2024-03-12T18:35:09.984Z,99818.72
2024-03-12T18:37:41.293Z,99800.38
2024-03-12T18:40:13.192Z,99822.31
2024-03-12T18:42:43.942Z,99819.75
2024-03-12T18:45:14.438Z,99824.25
2024-03-12T18:47:41.857Z,99826.09
2024-03-12T18:50:13.575Z,99832.19
2024-03-12T18:52:41.722Z,99839.25
2024-03-12T18:55:10.265Z,99833.84
2024-03-12T18:57:41.207Z,99832.87
2024-03-12T19:00:11.197Z,99837.09
2024-03-12T19:02:40.630Z,99839.56
2024-03-12T19:05:09.753Z,99837.66
2024-03-12T19:07:37.484Z,99841.22
2024-03-12T19:10:08.873Z,99834.97
2024-03-12T19:12:40.614Z,99824.50
2024-03-12T19:15:10.618Z,99828.03
2024-03-12T19:17:45.847Z,99834.19
2024-03-12T19:20:19.599Z,99825.47
2024-03-12T19:22:49.719Z,99826.44
2024-03-12T19:25:19.659Z,99825.63
2024-03-12T19:27:49.715Z,99823.06
2024-03-12T19:30:20.432Z,99817.94
2024-03-12T19:32:49.860Z,99818.97
2024-03-12T19:35:18.588Z,99818.09
2024-03-12T19:37:47.239Z,99810.34
2024-03-12T19:40:18.397Z,99811.37
2024-03-12T19:42:47.995Z,99814.16
2024-03-12T19:45:27.976Z,99807.31
2024-03-12T19:47:57.800Z,99796.03
2024-03-12T19:50:28.672Z,99796.94
2024-03-12T19:52:56.859Z,99803.16
2024-03-12T19:55:30.951Z,99801.56
2024-03-12T19:58:02.987Z,99805.03
2024-03-12T20:00:34.646Z,99806.00
2024-03-12T20:03:06.696Z,99802.53
2024-03-12T20:05:37.141Z,99802.69
2024-03-12T20:08:10.724Z,99806.09
2024-03-12T20:10:38.664Z,99807.09
2024-03-12T20:13:06.923Z,99807.22
2024-03-12T20:15:34.808Z,99809.91
2024-03-12T20:18:03.367Z,99809.97
2024-03-12T20:20:31.602Z,99811.84
2024-03-12T20:22:59.922Z,99805.78
2024-03-12T20:25:27.952Z,99816.44
2024-03-12T20:27:56.612Z,99818.28
2024-03-12T20:30:31.264Z,99810.53
2024-03-12T20:33:00.120Z,99821.94
2024-03-12T20:35:33.385Z,99818.59
2024-03-12T20:38:01.253Z,99820.38
2024-03-12T20:40:29.358Z,99829.25
2024-03-12T20:43:00.505Z,99822.31
2024-03-12T20:45:28.908Z,99825.75
2024-03-12T20:47:56.371Z,99814.44
2024-03-12T20:50:24.132Z,99820.66
2024-03-12T20:52:51.899Z,99815.50
2024-03-12T20:55:19.962Z,99818.25
2024-03-12T20:57:49.434Z,99823.59
2024-03-12T21:00:19.555Z,99822.88
2024-03-12T21:02:49.157Z,99825.63
2024-03-12T21:05:17.583Z,99828.41
2024-03-12T21:07:46.200Z,99829.31
2024-03-12T21:10:13.957Z,99827.53
2024-03-12T21:12:43.836Z,99835.47
2024-03-12T21:15:11.575Z,99830.41
2024-03-12T21:17:39.451Z,99829.38
2024-03-12T21:20:13.298Z,99838.12
2024-03-12T21:22:40.877Z,99830.28
2024-03-12T21:25:09.747Z,99835.59
2024-03-12T21:27:38.372Z,99827.78
2024-03-12T21:30:15.288Z,99832.13
2024-03-12T21:32:42.884Z,99828.72
2024-03-12T21:35:12.987Z,99839.19
2024-03-12T21:37:40.674Z,99844.50
2024-03-12T21:40:14.983Z,99842.78
2024-03-12T21:42:45.970Z,99842.81
2024-03-12T21:45:16.315Z,99836.62
2024-03-12T21:47:46.793Z,99840.13
2024-03-12T21:50:16.306Z,99837.53
2024-03-12T21:52:44.033Z,99842.00
2024-03-12T21:55:12.398Z,99838.56
2024-03-12T21:57:41.803Z,99835.16
2024-03-12T22:00:12.534Z,99844.84
2024-03-12T22:02:40.797Z,99838.75
2024-03-12T22:05:08.308Z,99837.03
2024-03-12T22:07:38.481Z,99848.44
2024-03-12T22:10:09.643Z,99844.97
2024-03-12T22:12:37.068Z,99840.63
2024-03-12T22:15:08.521Z,99841.47
2024-03-12T22:17:37.513Z,99841.59
2024-03-12T22:20:06.838Z,99847.75
2024-03-12T22:22:34.458Z,99854.81
2024-03-12T22:25:01.766Z,99847.69
2024-03-12T22:27:29.750Z,99858.25
2024-03-12T22:29:57.204Z,99849.41
2024-03-12T22:32:27.393Z,99846.78
2024-03-12T22:34:56.129Z,99841.44
2024-03-12T22:37:23.805Z,99853.56
2024-03-12T22:39:51.656Z,99837.81
2024-03-12T22:42:19.359Z,99852.59
2024-03-12T22:44:47.073Z,99844.47
2024-03-12T22:47:14.651Z,99842.25
2024-03-12T22:49:44.920Z,99848.00
2024-03-12T22:52:13.251Z,99843.28
2024-03-12T22:54:42.014Z,99841.06
2024-03-12T22:57:10.045Z,99842.75
2024-03-12T22:59:38.388Z,99845.78
2024-03-12T23:02:06.952Z,99848.41
2024-03-12T23:04:36.587Z,99851.06
2024-03-12T23:07:04.179Z,99854.56
2024-03-12T23:09:32.502Z,99850.00
2024-03-12T23:12:01.272Z,99856.97
2024-03-12T23:14:28.713Z,99855.19
2024-03-12T23:16:58.533Z,99856.87
2024-03-12T23:19:26.397Z,99862.97
2024-03-12T23:21:54.033Z,99856.00
2024-03-12T23:24:21.440Z,99866.53
2024-03-12T23:26:48.686Z,99857.69
2024-03-12T23:29:15.936Z,99867.31
2024-03-12T23:31:44.422Z,99864.47
2024-03-12T23:34:12.364Z,99862.81
2024-03-12T23:36:39.783Z,99859.16
2024-03-12T23:39:07.413Z,99862.78
2024-03-12T23:41:35.130Z,99853.16
2024-03-12T23:44:03.122Z,99867.19
2024-03-12T23:46:30.426Z,99867.09
2024-03-12T23:48:57.911Z,99873.28
2024-03-12T23:51:27.033Z,99868.06
2024-03-12T23:53:54.375Z,99873.41
2024-03-12T23:56:22.532Z,99874.22
2024-03-12T23:58:49.933Z,99875.09
